EDMA/AGB METAR and TAF weather

Enter ICAO airport designator
Station Type Date Time Source
EDMA METAR 2021/10/24 21:50 UTC NOAA

EDMA 242150Z AUTO 15002KT 9999 NCD 00/M00 Q1023


Station Type Date Time Source
EDMA Decoded METAR 2021/10/24 21:50 UTC NOAA

Augsburg, Germany (EDMA) 48-26N 010-56E 463M
Oct 24, 2021 - 05:50 PM EDT / 2021.10.24 2150 UTC
Wind: from the SSE (150 degrees) at 2 MPH (2 KT):0
Visibility: greater than 7 mile(s):0
Temperature: 32 F (0 C)
Dew Point: 32 F (0 C)
Relative Humidity: 100%
Pressure (altimeter): 30.21 in. Hg (1023 hPa)
ob: EDMA 242150Z AUTO 15002KT 9999 NCD 00/M00 Q1023
cycle: 22

Station Type Date Time Source
EDMA TAF 2010/02/22 13:50 UTC NOAA

METAR EDMA 221350Z 23006KT CAVOK 10/02 Q0996

Example: see airport list